Conway, North Dakota
Current Conditions -  °F | °C
As of 11:15 AM on Saturday 25 Oct 2014 (Local Time) from KGAF Reporting Station
Clear Clear  
Wind Chill: 50°   Ceiling: Unl
Heat Index: 50°   Visibility: 10mi
Dew Point: 32°   Wind: 16mph
Humidity: 50%   Direction: 290°WNW
Pressure: 30.07"   Gusts: 22mph
Location:  48.2362°N, 97.4515°W
Report Text: KGAF 251615Z AUTO 29014G19KT 10SM CLR 10/00 A3007 RMK AO2
Loading
Personal Weather Stations






























Interactive Weather Map
Tropical Storm Tracking
New forecast layout! Learn more

10-Day Weather Forecast

Advertisements
Track Severe Weather on mobile